sensor_id;sensor_type;location;lat;lon;timestamp;pressure;altitude;pressure_sealevel;temperature;humidity
79481;BME280;68944;48.262;14.208;2024-03-02T00:01:58;97486.50;;;6.08;100.00
79481;BME280;68944;48.262;14.208;2024-03-02T00:04:24;97489.31;;;6.13;100.00
79481;BME280;68944;48.262;14.208;2024-03-02T00:06:54;97494.72;;;6.25;100.00
79481;BME280;68944;48.262;14.208;2024-03-02T00:09:20;97485.22;;;6.24;100.00
79481;BME280;68944;48.262;14.208;2024-03-02T00:11:46;97487.94;;;6.03;100.00
79481;BME280;68944;48.262;14.208;2024-03-02T00:14:12;97478.25;;;5.97;100.00
79481;BME280;68944;48.262;14.208;2024-03-02T00:16:38;97479.81;;;6.05;100.00
79481;BME280;68944;48.262;14.208;2024-03-02T00:19:05;97478.22;;;6.11;100.00
79481;BME280;68944;48.262;14.208;2024-03-02T00:21:32;97472.97;;;6.11;100.00
79481;BME280;68944;48.262;14.208;2024-03-02T00:23:59;97465.47;;;6.08;100.00
79481;BME280;68944;48.262;14.208;2024-03-02T00:26:25;97473.00;;;5.97;100.00
79481;BME280;68944;48.262;14.208;2024-03-02T00:28:54;97464.72;;;5.94;100.00
79481;BME280;68944;48.262;14.208;2024-03-02T00:31:22;97473.41;;;5.94;100.00
79481;BME280;68944;48.262;14.208;2024-03-02T00:33:48;97471.78;;;6.07;100.00
79481;BME280;68944;48.262;14.208;2024-03-02T00:36:22;97467.16;;;5.95;100.00
79481;BME280;68944;48.262;14.208;2024-03-02T00:38:51;97466.13;;;5.96;100.00
79481;BME280;68944;48.262;14.208;2024-03-02T00:41:28;97466.38;;;5.88;100.00
79481;BME280;68944;48.262;14.208;2024-03-02T00:43:59;97468.41;;;5.86;100.00
79481;BME280;68944;48.262;14.208;2024-03-02T00:46:33;97470.03;;;5.80;100.00
79481;BME280;68944;48.262;14.208;2024-03-02T00:49:23;97475.09;;;5.82;100.00
79481;BME280;68944;48.262;14.208;2024-03-02T00:51:51;97471.06;;;5.79;100.00
79481;BME280;68944;48.262;14.208;2024-03-02T00:54:21;97476.47;;;5.91;100.00
79481;BME280;68944;48.262;14.208;2024-03-02T00:56:48;97472.03;;;5.85;100.00
79481;BME280;68944;48.262;14.208;2024-03-02T00:59:15;97469.25;;;5.79;100.00
79481;BME280;68944;48.262;14.208;2024-03-02T01:01:40;97471.25;;;5.84;100.00
79481;BME280;68944;48.262;14.208;2024-03-02T01:04:07;97462.91;;;5.94;100.00
79481;BME280;68944;48.262;14.208;2024-03-02T01:06:32;97468.16;;;5.94;100.00
79481;BME280;68944;48.262;14.208;2024-03-02T01:08:59;97463.56;;;5.83;100.00
79481;BME280;68944;48.262;14.208;2024-03-02T01:11:24;97464.03;;;5.66;100.00
79481;BME280;68944;48.262;14.208;2024-03-02T01:13:50;97461.22;;;5.67;100.00
79481;BME280;68944;48.262;14.208;2024-03-02T01:16:17;97466.50;;;5.61;100.00
79481;BME280;68944;48.262;14.208;2024-03-02T01:18:43;97462.22;;;5.66;100.00
79481;BME280;68944;48.262;14.208;2024-03-02T01:21:09;97460.59;;;5.72;100.00
79481;BME280;68944;48.262;14.208;2024-03-02T01:23:35;97465.25;;;5.70;100.00
79481;BME280;68944;48.262;14.208;2024-03-02T01:26:00;97458.66;;;5.47;100.00
79481;BME280;68944;48.262;14.208;2024-03-02T01:28:25;97466.75;;;5.45;100.00
79481;BME280;68944;48.262;14.208;2024-03-02T01:30:51;97462.66;;;5.56;100.00
79481;BME280;68944;48.262;14.208;2024-03-02T01:33:17;97464.25;;;5.64;100.00
79481;BME280;68944;48.262;14.208;2024-03-02T01:35:43;97454.75;;;5.70;100.00
79481;BME280;68944;48.262;14.208;2024-03-02T01:38:09;97457.41;;;5.63;100.00
79481;BME280;68944;48.262;14.208;2024-03-02T01:40:35;97456.84;;;5.41;100.00
79481;BME280;68944;48.262;14.208;2024-03-02T01:43:01;97462.72;;;5.36;100.00
79481;BME280;68944;48.262;14.208;2024-03-02T01:45:28;97469.97;;;5.41;100.00
79481;BME280;68944;48.262;14.208;2024-03-02T01:47:53;97468.16;;;5.48;100.00
79481;BME280;68944;48.262;14.208;2024-03-02T01:50:31;97461.94;;;5.35;100.00
79481;BME280;68944;48.262;14.208;2024-03-02T01:52:57;97467.19;;;5.29;100.00
79481;BME280;68944;48.262;14.208;2024-03-02T01:55:23;97470.84;;;5.21;100.00
79481;BME280;68944;48.262;14.208;2024-03-02T01:57:49;97464.38;;;5.30;100.00
79481;BME280;68944;48.262;14.208;2024-03-02T02:00:20;97464.13;;;5.39;100.00
79481;BME280;68944;48.262;14.208;2024-03-02T02:02:47;97461.28;;;5.47;100.00
79481;BME280;68944;48.262;14.208;2024-03-02T02:05:13;97457.09;;;5.32;100.00
79481;BME280;68944;48.262;14.208;2024-03-02T02:07:40;97459.47;;;5.41;100.00
79481;BME280;68944;48.262;14.208;2024-03-02T02:10:07;97464.72;;;5.47;100.00
79481;BME280;68944;48.262;14.208;2024-03-02T02:12:32;97459.47;;;5.41;100.00
79481;BME280;68944;48.262;14.208;2024-03-02T02:14:58;97461.50;;;5.45;100.00
79481;BME280;68944;48.262;14.208;2024-03-02T02:17:24;97461.06;;;5.55;100.00
79481;BME280;68944;48.262;14.208;2024-03-02T02:19:49;97463.44;;;5.64;100.00
79481;BME280;68944;48.262;14.208;2024-03-02T02:22:15;97463.47;;;5.57;100.00
79481;BME280;68944;48.262;14.208;2024-03-02T02:24:41;97458.19;;;5.64;100.00
79481;BME280;68944;48.262;14.208;2024-03-02T02:27:08;97459.41;;;5.61;100.00
79481;BME280;68944;48.262;14.208;2024-03-02T02:29:34;97457.97;;;5.72;100.00
79481;BME280;68944;48.262;14.208;2024-03-02T02:32:03;97448.06;;;5.67;100.00
79481;BME280;68944;48.262;14.208;2024-03-02T02:34:28;97449.31;;;5.58;100.00
79481;BME280;68944;48.262;14.208;2024-03-02T02:36:54;97450.28;;;5.64;100.00
79481;BME280;68944;48.262;14.208;2024-03-02T02:39:21;97447.84;;;5.69;100.00
79481;BME280;68944;48.262;14.208;2024-03-02T02:41:50;97433.34;;;5.60;100.00
79481;BME280;68944;48.262;14.208;2024-03-02T02:44:15;97434.00;;;5.48;100.00
79481;BME280;68944;48.262;14.208;2024-03-02T02:46:41;97434.78;;;5.55;100.00
79481;BME280;68944;48.262;14.208;2024-03-02T02:49:07;97436.81;;;5.53;100.00
79481;BME280;68944;48.262;14.208;2024-03-02T02:51:32;97441.88;;;5.48;100.00
79481;BME280;68944;48.262;14.208;2024-03-02T02:53:58;97440.47;;;5.45;100.00
79481;BME280;68944;48.262;14.208;2024-03-02T02:56:24;97439.25;;;5.48;100.00
79481;BME280;68944;48.262;14.208;2024-03-02T02:58:49;97438.44;;;5.47;100.00
79481;BME280;68944;48.262;14.208;2024-03-02T03:01:16;97438.19;;;5.63;100.00
79481;BME280;68944;48.262;14.208;2024-03-02T03:03:45;97420.75;;;5.68;100.00
79481;BME280;68944;48.262;14.208;2024-03-02T03:06:11;97420.19;;;5.60;100.00
79481;BME280;68944;48.262;14.208;2024-03-02T03:08:37;97418.16;;;5.62;100.00
79481;BME280;68944;48.262;14.208;2024-03-02T03:11:04;97411.13;;;5.55;100.00
79481;BME280;68944;48.262;14.208;2024-03-02T03:13:33;97409.50;;;5.54;100.00
79481;BME280;68944;48.262;14.208;2024-03-02T03:15:59;97414.19;;;5.45;100.00
79481;BME280;68944;48.262;14.208;2024-03-02T03:18:25;97417.44;;;5.41;100.00
79481;BME280;68944;48.262;14.208;2024-03-02T03:20:50;97419.09;;;5.35;100.00
79481;BME280;68944;48.262;14.208;2024-03-02T03:23:16;97420.97;;;5.21;100.00
79481;BME280;68944;48.262;14.208;2024-03-02T03:25:42;97418.75;;;5.18;100.00
79481;BME280;68944;48.262;14.208;2024-03-02T03:28:09;97418.31;;;5.28;100.00
79481;BME280;68944;48.262;14.208;2024-03-02T03:30:38;97423.56;;;5.28;100.00
79481;BME280;68944;48.262;14.208;2024-03-02T03:33:04;97412.66;;;5.31;100.00
79481;BME280;68944;48.262;14.208;2024-03-02T03:35:32;97424.34;;;5.35;100.00
79481;BME280;68944;48.262;14.208;2024-03-02T03:37:58;97421.91;;;5.33;100.00
79481;BME280;68944;48.262;14.208;2024-03-02T03:40:24;97423.50;;;5.41;100.00
79481;BME280;68944;48.262;14.208;2024-03-02T03:42:49;97417.88;;;5.38;100.00
79481;BME280;68944;48.262;14.208;2024-03-02T03:45:16;97425.75;;;5.38;100.00
79481;BME280;68944;48.262;14.208;2024-03-02T03:47:42;97420.31;;;5.32;100.00
79481;BME280;68944;48.262;14.208;2024-03-02T03:50:08;97425.78;;;5.31;100.00
79481;BME280;68944;48.262;14.208;2024-03-02T03:52:34;97420.72;;;5.29;100.00
79481;BME280;68944;48.262;14.208;2024-03-02T03:55:00;97421.38;;;5.18;100.00
79481;BME280;68944;48.262;14.208;2024-03-02T03:57:26;97415.16;;;5.05;100.00
79481;BME280;68944;48.262;14.208;2024-03-02T03:59:52;97423.44;;;4.95;100.00
79481;BME280;68944;48.262;14.208;2024-03-02T04:02:18;97424.44;;;5.01;100.00
79481;BME280;68944;48.262;14.208;2024-03-02T04:04:43;97420.56;;;5.10;100.00
79481;BME280;68944;48.262;14.208;2024-03-02T04:07:09;97425.63;;;5.19;100.00
79481;BME280;68944;48.262;14.208;2024-03-02T04:09:35;97425.81;;;5.10;100.00
79481;BME280;68944;48.262;14.208;2024-03-02T04:12:00;97423.59;;;5.21;100.00
79481;BME280;68944;48.262;14.208;2024-03-02T04:14:26;97423.34;;;5.29;100.00
79481;BME280;68944;48.262;14.208;2024-03-02T04:16:51;97415.47;;;5.29;100.00
79481;BME280;68944;48.262;14.208;2024-03-02T04:19:17;97416.06;;;5.31;100.00
79481;BME280;68944;48.262;14.208;2024-03-02T04:21:42;97419.31;;;5.27;100.00
79481;BME280;68944;48.262;14.208;2024-03-02T04:24:08;97418.53;;;5.26;100.00
79481;BME280;68944;48.262;14.208;2024-03-02T04:26:33;97426.16;;;5.34;100.00
79481;BME280;68944;48.262;14.208;2024-03-02T04:28:59;97419.09;;;5.35;100.00
79481;BME280;68944;48.262;14.208;2024-03-02T04:31:24;97419.69;;;5.37;100.00
79481;BME280;68944;48.262;14.208;2024-03-02T04:33:50;97418.88;;;5.37;100.00
79481;BME280;68944;48.262;14.208;2024-03-02T04:36:15;97423.16;;;5.24;100.00
79481;BME280;68944;48.262;14.208;2024-03-02T04:38:41;97410.66;;;5.19;100.00
79481;BME280;68944;48.262;14.208;2024-03-02T04:41:07;97417.53;;;5.14;100.00
79481;BME280;68944;48.262;14.208;2024-03-02T04:43:33;97419.97;;;5.08;100.00
79481;BME280;68944;48.262;14.208;2024-03-02T04:45:59;97426.06;;;5.02;100.00
79481;BME280;68944;48.262;14.208;2024-03-02T04:48:25;97412.72;;;4.97;100.00
79481;BME280;68944;48.262;14.208;2024-03-02T04:50:51;97411.53;;;4.93;100.00
79481;BME280;68944;48.262;14.208;2024-03-02T04:53:16;97408.72;;;4.87;100.00
79481;BME280;68944;48.262;14.208;2024-03-02T04:55:42;97409.91;;;4.92;100.00
79481;BME280;68944;48.262;14.208;2024-03-02T04:58:07;97419.63;;;4.91;100.00
79481;BME280;68944;48.262;14.208;2024-03-02T05:00:34;97419.81;;;4.89;100.00
79481;BME280;68944;48.262;14.208;2024-03-02T05:02:59;97415.78;;;4.87;100.00
79481;BME280;68944;48.262;14.208;2024-03-02T05:05:25;97410.34;;;4.88;100.00
79481;BME280;68944;48.262;14.208;2024-03-02T05:07:51;97407.13;;;4.80;100.00
79481;BME280;68944;48.262;14.208;2024-03-02T05:10:17;97409.34;;;4.69;100.00
79481;BME280;68944;48.262;14.208;2024-03-02T05:12:42;97411.16;;;4.69;100.00
79481;BME280;68944;48.262;14.208;2024-03-02T05:15:10;97422.06;;;4.72;100.00
79481;BME280;68944;48.262;14.208;2024-03-02T05:17:36;97410.19;;;4.49;100.00
79481;BME280;68944;48.262;14.208;2024-03-02T05:20:06;97423.31;;;4.42;100.00
79481;BME280;68944;48.262;14.208;2024-03-02T05:22:36;97423.69;;;4.32;100.00
79481;BME280;68944;48.262;14.208;2024-03-02T05:25:06;97430.97;;;4.37;100.00
79481;BME280;68944;48.262;14.208;2024-03-02T05:27:32;97423.69;;;4.46;100.00
79481;BME280;68944;48.262;14.208;2024-03-02T05:29:59;97428.13;;;4.52;100.00
79481;BME280;68944;48.262;14.208;2024-03-02T05:32:25;97428.94;;;4.53;100.00
79481;BME280;68944;48.262;14.208;2024-03-02T05:34:50;97426.50;;;4.65;100.00
79481;BME280;68944;48.262;14.208;2024-03-02T05:37:17;97423.06;;;4.71;100.00
79481;BME280;68944;48.262;14.208;2024-03-02T05:39:43;97418.84;;;4.63;100.00
79481;BME280;68944;48.262;14.208;2024-03-02T05:42:12;97423.50;;;4.61;100.00
79481;BME280;68944;48.262;14.208;2024-03-02T05:44:38;97429.53;;;4.62;100.00
79481;BME280;68944;48.262;14.208;2024-03-02T05:47:03;97437.22;;;4.57;100.00
79481;BME280;68944;48.262;14.208;2024-03-02T05:49:29;97440.84;;;4.62;100.00
79481;BME280;68944;48.262;14.208;2024-03-02T05:51:55;97437.41;;;4.69;100.00
79481;BME280;68944;48.262;14.208;2024-03-02T05:54:21;97436.59;;;4.75;100.00
79481;BME280;68944;48.262;14.208;2024-03-02T05:56:47;97440.00;;;4.75;100.00
79481;BME280;68944;48.262;14.208;2024-03-02T05:59:12;97431.94;;;4.84;100.00
79481;BME280;68944;48.262;14.208;2024-03-02T06:01:45;97431.53;;;4.87;100.00
79481;BME280;68944;48.262;14.208;2024-03-02T06:04:12;97427.69;;;4.89;100.00
79481;BME280;68944;48.262;14.208;2024-03-02T06:06:38;97435.38;;;4.98;100.00
79481;BME280;68944;48.262;14.208;2024-03-02T06:09:04;97441.41;;;5.05;100.00
79481;BME280;68944;48.262;14.208;2024-03-02T06:11:36;97436.97;;;4.92;100.00
79481;BME280;68944;48.262;14.208;2024-03-02T06:14:05;97445.06;;;4.97;100.00
79481;BME280;68944;48.262;14.208;2024-03-02T06:16:31;97443.59;;;5.08;100.00
79481;BME280;68944;48.262;14.208;2024-03-02T06:18:58;97446.63;;;5.19;100.00
79481;BME280;68944;48.262;14.208;2024-03-02T06:21:24;97443.81;;;5.14;100.00
79481;BME280;68944;48.262;14.208;2024-03-02T06:23:49;97443.03;;;4.93;100.00
79481;BME280;68944;48.262;14.208;2024-03-02T06:26:15;97455.94;;;5.15;100.00
79481;BME280;68944;48.262;14.208;2024-03-02T06:28:41;97454.66;;;5.24;100.00
79481;BME280;68944;48.262;14.208;2024-03-02T06:31:06;97457.13;;;5.19;100.00
79481;BME280;68944;48.262;14.208;2024-03-02T06:33:32;97456.88;;;5.34;100.00
79481;BME280;68944;48.262;14.208;2024-03-02T06:35:57;97470.41;;;5.44;100.00
79481;BME280;68944;48.262;14.208;2024-03-02T06:38:23;97464.31;;;5.51;100.00
79481;BME280;68944;48.262;14.208;2024-03-02T06:40:48;97461.88;;;5.56;100.00
79481;BME280;68944;48.262;14.208;2024-03-02T06:43:14;97470.69;;;5.68;100.00
79481;BME280;68944;48.262;14.208;2024-03-02T06:45:41;97475.38;;;5.60;100.00
79481;BME280;68944;48.262;14.208;2024-03-02T06:48:06;97482.94;;;5.35;100.00
79481;BME280;68944;48.262;14.208;2024-03-02T06:50:32;97486.81;;;5.26;100.00
79481;BME280;68944;48.262;14.208;2024-03-02T06:52:58;97483.16;;;5.27;100.00
79481;BME280;68944;48.262;14.208;2024-03-02T06:55:24;97489.22;;;5.34;100.00
79481;BME280;68944;48.262;14.208;2024-03-02T06:57:51;97495.28;;;5.35;100.00
79481;BME280;68944;48.262;14.208;2024-03-02T07:00:17;97489.78;;;5.43;100.00
79481;BME280;68944;48.262;14.208;2024-03-02T07:02:44;97499.09;;;5.46;100.00
79481;BME280;68944;48.262;14.208;2024-03-02T07:05:10;97508.13;;;5.64;100.00
79481;BME280;68944;48.262;14.208;2024-03-02T07:07:36;97511.53;;;5.71;100.00
79481;BME280;68944;48.262;14.208;2024-03-02T07:10:04;97511.69;;;5.83;100.00
79481;BME280;68944;48.262;14.208;2024-03-02T07:12:30;97502.53;;;5.99;100.00
79481;BME280;68944;48.262;14.208;2024-03-02T07:14:56;97508.16;;;6.10;100.00
79481;BME280;68944;48.262;14.208;2024-03-02T07:17:37;97501.88;;;6.11;100.00
79481;BME280;68944;48.262;14.208;2024-03-02T07:20:03;97505.50;;;6.10;100.00
79481;BME280;68944;48.262;14.208;2024-03-02T07:22:32;97506.13;;;6.12;100.00
79481;BME280;68944;48.262;14.208;2024-03-02T07:24:58;97505.69;;;6.15;100.00
79481;BME280;68944;48.262;14.208;2024-03-02T07:27:24;97512.72;;;6.28;100.00
79481;BME280;68944;48.262;14.208;2024-03-02T07:29:49;97515.28;;;6.42;100.00
79481;BME280;68944;48.262;14.208;2024-03-02T07:32:15;97521.31;;;6.42;100.00
79481;BME280;68944;48.262;14.208;2024-03-02T07:34:41;97514.09;;;6.31;100.00
79481;BME280;68944;48.262;14.208;2024-03-02T07:37:07;97519.19;;;6.32;100.00
79481;BME280;68944;48.262;14.208;2024-03-02T07:39:32;97525.81;;;6.42;100.00
79481;BME280;68944;48.262;14.208;2024-03-02T07:41:59;97523.72;;;6.51;100.00
79481;BME280;68944;48.262;14.208;2024-03-02T07:44:25;97523.72;;;6.51;100.00
79481;BME280;68944;48.262;14.208;2024-03-02T07:46:50;97527.63;;;6.41;100.00
79481;BME280;68944;48.262;14.208;2024-03-02T07:49:16;97524.22;;;6.34;100.00
79481;BME280;68944;48.262;14.208;2024-03-02T07:51:42;97527.44;;;6.36;100.00
79481;BME280;68944;48.262;14.208;2024-03-02T07:54:08;97533.59;;;6.23;100.00
79481;BME280;68944;48.262;14.208;2024-03-02T07:56:35;97535.25;;;6.03;100.00
79481;BME280;68944;48.262;14.208;2024-03-02T07:59:02;97533.66;;;6.09;100.00
79481;BME280;68944;48.262;14.208;2024-03-02T08:01:29;97537.84;;;6.17;100.00
79481;BME280;68944;48.262;14.208;2024-03-02T08:04:01;97538.94;;;6.42;100.00
79481;BME280;68944;48.262;14.208;2024-03-02T08:06:29;97531.84;;;6.42;100.00
79481;BME280;68944;48.262;14.208;2024-03-02T08:08:56;97539.09;;;6.54;100.00
79481;BME280;68944;48.262;14.208;2024-03-02T08:11:22;97529.88;;;6.63;100.00
79481;BME280;68944;48.262;14.208;2024-03-02T08:13:48;97528.88;;;6.64;100.00
79481;BME280;68944;48.262;14.208;2024-03-02T08:16:17;97530.34;;;6.60;100.00
79481;BME280;68944;48.262;14.208;2024-03-02T08:18:49;97518.72;;;6.68;100.00
79481;BME280;68944;48.262;14.208;2024-03-02T08:21:15;97527.28;;;6.89;100.00
79481;BME280;68944;48.262;14.208;2024-03-02T08:23:40;97520.94;;;6.97;100.00
79481;BME280;68944;48.262;14.208;2024-03-02T08:26:08;97527.19;;;6.77;100.00
79481;BME280;68944;48.262;14.208;2024-03-02T08:28:34;97527.00;;;6.71;100.00
79481;BME280;68944;48.262;14.208;2024-03-02T08:31:00;97523.56;;;6.97;100.00
79481;BME280;68944;48.262;14.208;2024-03-02T08:33:25;97524.09;;;7.05;100.00
79481;BME280;68944;48.262;14.208;2024-03-02T08:35:51;97527.38;;;7.01;100.00
79481;BME280;68944;48.262;14.208;2024-03-02T08:38:17;97525.09;;;7.11;100.00
79481;BME280;68944;48.262;14.208;2024-03-02T08:40:43;97526.09;;;7.10;100.00
79481;BME280;68944;48.262;14.208;2024-03-02T08:43:09;97530.84;;;7.01;100.00
79481;BME280;68944;48.262;14.208;2024-03-02T08:45:35;97523.09;;;6.81;100.00
79481;BME280;68944;48.262;14.208;2024-03-02T08:48:01;97522.06;;;6.82;100.00
79481;BME280;68944;48.262;14.208;2024-03-02T08:50:26;97529.19;;;6.81;100.00
79481;BME280;68944;48.262;14.208;2024-03-02T08:52:52;97531.13;;;6.93;100.00
79481;BME280;68944;48.262;14.208;2024-03-02T08:55:17;97529.38;;;6.80;100.00
79481;BME280;68944;48.262;14.208;2024-03-02T08:57:43;97530.00;;;6.75;100.00
79481;BME280;68944;48.262;14.208;2024-03-02T09:00:09;97531.69;;;6.69;100.00
79481;BME280;68944;48.262;14.208;2024-03-02T09:02:34;97534.69;;;6.73;100.00
79481;BME280;68944;48.262;14.208;2024-03-02T09:05:00;97535.09;;;6.77;100.00
79481;BME280;68944;48.262;14.208;2024-03-02T09:07:26;97547.09;;;6.91;100.00
79481;BME280;68944;48.262;14.208;2024-03-02T09:09:52;97542.59;;;6.99;100.00
79481;BME280;68944;48.262;14.208;2024-03-02T09:12:18;97541.47;;;7.13;100.00
79481;BME280;68944;48.262;14.208;2024-03-02T09:14:44;97547.38;;;6.83;100.00
79481;BME280;68944;48.262;14.208;2024-03-02T09:17:10;97551.88;;;6.76;100.00
79481;BME280;68944;48.262;14.208;2024-03-02T09:19:37;97551.78;;;6.89;100.00
79481;BME280;68944;48.262;14.208;2024-03-02T09:22:03;97551.63;;;7.10;100.00
79481;BME280;68944;48.262;14.208;2024-03-02T09:24:33;97551.63;;;7.10;100.00
79481;BME280;68944;48.262;14.208;2024-03-02T09:27:00;97544.94;;;7.33;100.00
79481;BME280;68944;48.262;14.208;2024-03-02T09:29:26;97541.72;;;7.49;100.00
79481;BME280;68944;48.262;14.208;2024-03-02T09:31:51;97535.22;;;7.71;100.00
79481;BME280;68944;48.262;14.208;2024-03-02T09:34:17;97540.72;;;7.69;100.00
79481;BME280;68944;48.262;14.208;2024-03-02T09:36:43;97540.47;;;7.33;100.00
79481;BME280;68944;48.262;14.208;2024-03-02T09:39:09;97545.56;;;7.09;100.00
79481;BME280;68944;48.262;14.208;2024-03-02T09:41:36;97545.44;;;7.23;100.00
79481;BME280;68944;48.262;14.208;2024-03-02T09:44:03;97549.84;;;7.29;100.00
79481;BME280;68944;48.262;14.208;2024-03-02T09:46:29;97539.63;;;7.39;100.00
79481;BME280;68944;48.262;14.208;2024-03-02T09:48:55;97528.63;;;7.43;100.00
79481;BME280;68944;48.262;14.208;2024-03-02T09:51:21;97530.09;;;7.57;100.00
79481;BME280;68944;48.262;14.208;2024-03-02T09:53:47;97535.00;;;7.72;100.00
79481;BME280;68944;48.262;14.208;2024-03-02T09:56:12;97521.59;;;7.36;100.00
79481;BME280;68944;48.262;14.208;2024-03-02T09:58:39;97536.25;;;7.70;100.00
79481;BME280;68944;48.262;14.208;2024-03-02T10:01:08;97528.69;;;7.92;100.00
79481;BME280;68944;48.262;14.208;2024-03-02T10:03:37;97521.06;;;7.65;100.00
79481;BME280;68944;48.262;14.208;2024-03-02T10:06:22;97519.72;;;7.44;100.00
79481;BME280;68944;48.262;14.208;2024-03-02T10:08:48;97515.38;;;7.49;100.00
79481;BME280;68944;48.262;14.208;2024-03-02T10:11:34;97525.03;;;7.74;100.00
79481;BME280;68944;48.262;14.208;2024-03-02T10:14:09;97519.09;;;7.79;100.00
79481;BME280;68944;48.262;14.208;2024-03-02T10:16:37;97519.91;;;7.42;100.00
79481;BME280;68944;48.262;14.208;2024-03-02T10:19:23;97514.44;;;7.44;100.00
79481;BME280;68944;48.262;14.208;2024-03-02T10:21:54;97510.09;;;7.87;100.00
79481;BME280;68944;48.262;14.208;2024-03-02T10:24:23;97503.97;;;8.05;100.00
79481;BME280;68944;48.262;14.208;2024-03-02T10:26:49;97498.81;;;7.80;100.00
79481;BME280;68944;48.262;14.208;2024-03-02T10:29:15;97506.81;;;8.23;100.00
79481;BME280;68944;48.262;14.208;2024-03-02T10:31:42;97505.81;;;8.05;100.00
79481;BME280;68944;48.262;14.208;2024-03-02T10:34:09;97499.53;;;7.87;100.00
79481;BME280;68944;48.262;14.208;2024-03-02T10:36:36;97496.16;;;8.29;100.00
79481;BME280;68944;48.262;14.208;2024-03-02T10:39:06;97486.75;;;8.64;100.00
79481;BME280;68944;48.262;14.208;2024-03-02T10:41:37;97481.59;;;8.94;100.00
79481;BME280;68944;48.262;14.208;2024-03-02T10:44:05;97472.03;;;9.05;100.00
79481;BME280;68944;48.262;14.208;2024-03-02T10:46:33;97477.44;;;9.34;100.00
79481;BME280;68944;48.262;14.208;2024-03-02T10:49:04;97467.31;;;9.43;100.00
79481;BME280;68944;48.262;14.208;2024-03-02T10:51:33;97466.81;;;9.46;100.00
79481;BME280;68944;48.262;14.208;2024-03-02T10:53:59;97454.78;;;9.38;100.00
79481;BME280;68944;48.262;14.208;2024-03-02T10:56:42;97454.94;;;9.61;100.00
79481;BME280;68944;48.262;14.208;2024-03-02T10:59:17;97456.75;;;9.72;100.00
79481;BME280;68944;48.262;14.208;2024-03-02T11:01:48;97450.56;;;9.66;100.00
79481;BME280;68944;48.262;14.208;2024-03-02T11:04:16;97451.88;;;9.52;100.00
79481;BME280;68944;48.262;14.208;2024-03-02T11:06:50;97439.03;;;9.43;100.00
79481;BME280;68944;48.262;14.208;2024-03-02T11:09:21;97447.44;;;9.70;100.00
79481;BME280;68944;48.262;14.208;2024-03-02T11:12:00;97439.84;;;9.32;100.00
79481;BME280;68944;48.262;14.208;2024-03-02T11:14:30;97431.16;;;9.61;100.00
79481;BME280;68944;48.262;14.208;2024-03-02T11:16:56;97442.41;;;9.68;100.00
79481;BME280;68944;48.262;14.208;2024-03-02T11:19:22;97439.09;;;9.49;100.00
79481;BME280;68944;48.262;14.208;2024-03-02T11:21:48;97442.84;;;8.99;100.00
79481;BME280;68944;48.262;14.208;2024-03-02T11:27:09;97430.00;;;9.56;100.00
79481;BME280;68944;48.262;14.208;2024-03-02T11:32:36;97431.72;;;9.92;100.00
79481;BME280;68944;48.262;14.208;2024-03-02T11:35:02;97414.28;;;10.08;100.00
79481;BME280;68944;48.262;14.208;2024-03-02T11:37:27;97416.13;;;10.08;100.00
79481;BME280;68944;48.262;14.208;2024-03-02T11:39:53;97412.31;;;9.86;100.00
79481;BME280;68944;48.262;14.208;2024-03-02T11:42:19;97416.28;;;10.01;100.00
79481;BME280;68944;48.262;14.208;2024-03-02T11:44:45;97415.28;;;9.61;100.00
79481;BME280;68944;48.262;14.208;2024-03-02T11:47:13;97412.97;;;9.94;100.00
79481;BME280;68944;48.262;14.208;2024-03-02T11:49:46;97411.69;;;10.13;100.00
79481;BME280;68944;48.262;14.208;2024-03-02T11:52:15;97407.84;;;10.04;100.00
79481;BME280;68944;48.262;14.208;2024-03-02T11:54:43;97406.56;;;10.07;100.00
79481;BME280;68944;48.262;14.208;2024-03-02T11:57:17;97411.13;;;10.11;100.00
79481;BME280;68944;48.262;14.208;2024-03-02T11:59:43;97409.63;;;10.16;100.00
79481;BME280;68944;48.262;14.208;2024-03-02T12:02:18;97404.66;;;10.19;100.00
79481;BME280;68944;48.262;14.208;2024-03-02T12:04:46;97400.41;;;10.35;100.00
79481;BME280;68944;48.262;14.208;2024-03-02T12:07:18;97395.03;;;10.47;100.00
79481;BME280;68944;48.262;14.208;2024-03-02T12:09:46;97397.75;;;10.35;100.00
79481;BME280;68944;48.262;14.208;2024-03-02T12:12:11;97400.50;;;10.41;100.00
79481;BME280;68944;48.262;14.208;2024-03-02T12:14:40;97399.63;;;10.18;100.00
79481;BME280;68944;48.262;14.208;2024-03-02T12:17:05;97396.31;;;10.28;100.00
79481;BME280;68944;48.262;14.208;2024-03-02T12:19:32;97390.38;;;10.38;100.00
79481;BME280;68944;48.262;14.208;2024-03-02T12:21:59;97394.53;;;10.16;100.00
79481;BME280;68944;48.262;14.208;2024-03-02T12:24:27;97385.09;;;10.38;100.00
79481;BME280;68944;48.262;14.208;2024-03-02T12:26:53;97382.84;;;10.46;100.00
79481;BME280;68944;48.262;14.208;2024-03-02T12:29:20;97381.25;;;10.63;100.00
79481;BME280;68944;48.262;14.208;2024-03-02T12:31:52;97365.00;;;10.76;100.00
79481;BME280;68944;48.262;14.208;2024-03-02T12:34:18;97367.69;;;10.99;100.00
79481;BME280;68944;48.262;14.208;2024-03-02T12:36:46;97356.56;;;11.24;100.00
79481;BME280;68944;48.262;14.208;2024-03-02T12:39:16;97351.16;;;11.64;100.00
79481;BME280;68944;48.262;14.208;2024-03-02T12:41:42;97349.97;;;11.77;100.00
79481;BME280;68944;48.262;14.208;2024-03-02T12:44:08;97352.06;;;12.08;100.00
79481;BME280;68944;48.262;14.208;2024-03-02T12:46:34;97351.09;;;12.14;100.00
79481;BME280;68944;48.262;14.208;2024-03-02T12:49:09;97339.84;;;12.40;100.00
79481;BME280;68944;48.262;14.208;2024-03-02T12:51:39;97334.22;;;12.80;100.00
79481;BME280;68944;48.262;14.208;2024-03-02T12:54:09;97339.25;;;12.76;100.00